Tiff City, MO (64868)

3:10 PM CDT on August 30, 2014 (GMT -0500)
Grove Municipal | Change Station
CLOSE
Current Station
Airport
Location: Grove,
Elevation: 833 ft
Nearby Weather Stations

Elev 833 ft 36.60 °N, 94.74 °W | Updated 55 minutes ago

Scattered Clouds
Scattered Clouds
90 °F
Feels Like 93 °F
N
5
Wind Variable Wind from WSW

Today
High -- | Low -- °F
--% Chance of Precip.
Yesterday
High -- | Low -- °F
Precip. -- in
6:47 AM 7:49 PM
Waxing Crescent, 24% visible
Pressure 29.94 in
Visibility 10.0 miles
Clouds Scattered Clouds 4400 ft
Scattered Clouds 5500 ft
Scattered Clouds 8500 ft
Heat Index 93 °F
Dew Point 68 °F
Humidity 49%
Rainfall 0.00 in
Snow Depth Not available.
UV 8 out of 12
Pollen 9.70 out of 12
Air Quality Not available.
Flu Activity Not available.
METAR KGMJ 301915Z AUTO 24004KT 10SM SCT044 SCT055 SCT085 32/20 A2994 RMK AO2

More Conditions Fewer Conditions

Pressure 29.94 in
Visibility 10.0 miles
Clouds Scattered Clouds 4400 ft
Scattered Clouds 5500 ft
Scattered Clouds 8500 ft
Heat Index 93 °F
Dew Point 68 °F
Humidity 49%
Rainfall 0.00 in
Snow Depth Not available.
UV 8 out of 12
Pollen 9.70 out of 12
Air Quality Not available.
Flu Activity Not available.
METAR KGMJ 301915Z AUTO 24004KT 10SM SCT044 SCT055 SCT085 32/20 A2994 RMK AO2

More Conditions Fewer Conditions

10-Day Weather Forecast

Almanac

Astronomy

Aug. 30, 2014 Rise Set
Actual Time 6:47 AM CDT 7:49 PM CDT
Civil Twilight 6:21 AM CDT 8:15 PM CDT
Nautical Twilight 5:49 AM CDT 8:47 PM CDT
Astronomical Twilight 5:17 AM CDT 9:19 PM CDT
Moon 11:27 AM CDT 10:33 PM CDT
Length of Visible Light 13h 54m
Length of Day
13h 01m
Tomorrow will be 2m 15s shorter.
Waxing Crescent, 24% of the Moon is Illuminated
Today
Waxing Crescent
Sep 2
First Quarter
Sep 8
Full
Sep 15
Last Quarter
Sep 24
New

Today's Extremes

State Highs State Lows

Community

WunderPhotos

Upload Photos

1,748,622 photos uploaded!

WunderBlogs® & News

Nearby

Snow Depth

Station Depth Elevation
No new snow has been reported.

Earthquake Activity

City Distance Mag. Time & Date
No recent earthquake activity has been reported nearby.
Minimum magnitude displayed is 2.5.

Coastal Water Temperatures

Place Temperature
No Stations Reporting

Nearby Weather Stations